createdAt,value
2023-04-25T00:00:30.978Z,67.80
2023-04-25T00:02:58.500Z,67.80
2023-04-25T00:05:27.358Z,67.80
2023-04-25T00:07:55.046Z,67.90
2023-04-25T00:10:22.616Z,67.90
2023-04-25T00:12:50.327Z,67.80
2023-04-25T00:15:18.657Z,67.90
2023-04-25T00:17:46.603Z,67.80
2023-04-25T00:20:14.106Z,67.80
2023-04-25T00:22:41.479Z,67.80
2023-04-25T00:25:09.291Z,67.70
2023-04-25T00:27:36.680Z,68.00
2023-04-25T00:30:04.641Z,67.80
2023-04-25T00:32:32.131Z,67.80
2023-04-25T00:34:59.630Z,67.90
2023-04-25T00:37:27.059Z,67.90
2023-04-25T00:39:55.815Z,68.70
2023-04-25T00:42:23.309Z,68.00
2023-04-25T00:44:51.037Z,67.90
2023-04-25T00:47:18.675Z,67.90
2023-04-25T00:49:46.113Z,67.80
2023-04-25T00:52:13.845Z,67.80
2023-04-25T00:54:41.317Z,67.90
2023-04-25T00:57:08.600Z,68.00
2023-04-25T00:59:38.345Z,67.90
2023-04-25T01:02:06.157Z,67.90
2023-04-25T01:04:33.694Z,68.00
2023-04-25T01:07:01.093Z,68.10
2023-04-25T01:09:28.897Z,68.10
2023-04-25T01:11:56.367Z,68.30
2023-04-25T01:14:23.970Z,68.40
2023-04-25T01:16:51.722Z,68.40
2023-04-25T01:19:19.294Z,68.60
2023-04-25T01:21:47.921Z,68.70
2023-04-25T01:24:16.498Z,68.80
2023-04-25T01:26:50.663Z,68.90
2023-04-25T01:29:23.038Z,68.80
2023-04-25T01:31:52.207Z,68.90
2023-04-25T01:34:20.133Z,69.00
2023-04-25T01:36:51.305Z,68.80
2023-04-25T01:39:19.544Z,68.90
2023-04-25T01:41:48.006Z,68.80
2023-04-25T01:44:15.734Z,68.80
2023-04-25T01:46:43.112Z,68.80
2023-04-25T01:49:12.077Z,68.90
2023-04-25T01:51:40.598Z,69.00
2023-04-25T01:54:09.163Z,68.90
2023-04-25T01:56:38.563Z,69.10
2023-04-25T01:59:07.874Z,69.10
2023-04-25T02:01:51.003Z,69.10
2023-04-25T02:04:27.304Z,69.20
2023-04-25T02:06:54.968Z,69.20
2023-04-25T02:09:23.531Z,69.10
2023-04-25T02:11:56.468Z,69.10
2023-04-25T02:14:36.269Z,69.20
2023-04-25T02:17:08.165Z,69.10
2023-04-25T02:19:36.069Z,69.30
2023-04-25T02:22:03.638Z,69.30
2023-04-25T02:24:30.907Z,69.30
2023-04-25T02:26:58.184Z,69.20
2023-04-25T02:29:25.473Z,69.20
2023-04-25T02:31:52.968Z,69.10
2023-04-25T02:34:21.381Z,69.20
2023-04-25T02:36:51.593Z,69.20
2023-04-25T02:39:19.630Z,69.20
2023-04-25T02:41:46.895Z,69.20
2023-04-25T02:44:14.123Z,69.10
2023-04-25T02:46:41.428Z,69.20
2023-04-25T02:49:08.653Z,69.10
2023-04-25T02:51:36.863Z,69.20
2023-04-25T02:54:04.443Z,69.20
2023-04-25T02:56:35.588Z,69.30
2023-04-25T02:59:03.266Z,69.20
2023-04-25T03:01:31.834Z,69.30
2023-04-25T03:03:59.112Z,69.20
2023-04-25T03:06:26.405Z,69.40
2023-04-25T03:08:54.381Z,69.50
2023-04-25T03:11:22.040Z,69.50
2023-04-25T03:13:50.076Z,69.60
2023-04-25T03:16:17.666Z,69.80
2023-04-25T03:18:45.052Z,69.80
2023-04-25T03:21:12.525Z,69.90
2023-04-25T03:23:39.980Z,69.90
2023-04-25T03:26:08.861Z,69.90
2023-04-25T03:28:36.172Z,69.80
2023-04-25T03:31:03.688Z,69.90
2023-04-25T03:33:31.351Z,69.90
2023-04-25T03:35:59.148Z,69.90
2023-04-25T03:38:28.830Z,69.90
2023-04-25T03:40:57.369Z,69.90
2023-04-25T03:43:38.131Z,69.90
2023-04-25T03:46:10.545Z,70.00
2023-04-25T03:48:38.780Z,69.90
2023-04-25T03:51:07.639Z,70.00
2023-04-25T03:53:38.642Z,70.00
2023-04-25T03:56:15.198Z,70.00
2023-04-25T03:58:43.088Z,70.00
2023-04-25T04:01:11.220Z,70.10
2023-04-25T04:03:40.785Z,70.20
2023-04-25T04:06:09.391Z,70.10
2023-04-25T04:08:40.401Z,70.30
2023-04-25T04:11:07.835Z,70.30
2023-04-25T04:13:35.197Z,70.10
2023-04-25T04:16:05.255Z,70.20
2023-04-25T04:18:34.170Z,70.20
2023-04-25T04:21:02.761Z,70.10
2023-04-25T04:23:32.860Z,70.10
2023-04-25T04:26:01.726Z,70.20
2023-04-25T04:28:45.193Z,70.20
2023-04-25T04:31:35.733Z,70.10
2023-04-25T04:34:04.563Z,70.10
2023-04-25T04:36:32.133Z,70.00
2023-04-25T04:39:00.006Z,70.00
2023-04-25T04:41:36.773Z,70.00
2023-04-25T04:44:33.601Z,70.40
2023-04-25T04:47:21.216Z,70.70
2023-04-25T04:50:15.981Z,70.80
2023-04-25T04:53:10.580Z,71.30
2023-04-25T04:55:47.989Z,71.30
2023-04-25T04:58:39.081Z,71.60
2023-04-25T05:01:13.761Z,71.80
2023-04-25T05:04:07.645Z,71.90
2023-04-25T05:06:49.886Z,72.30
2023-04-25T05:09:40.316Z,72.50
2023-04-25T05:12:27.990Z,72.70
2023-04-25T05:15:09.690Z,72.60
2023-04-25T05:17:52.169Z,72.60
2023-04-25T05:20:46.181Z,72.80
2023-04-25T05:26:23.624Z,72.90
2023-04-25T05:29:01.279Z,73.10
2023-04-25T05:31:54.757Z,73.00
2023-04-25T05:34:22.241Z,73.00
2023-04-25T05:36:57.102Z,72.90
2023-04-25T05:39:25.609Z,72.90
2023-04-25T05:42:13.628Z,72.80
2023-04-25T05:44:53.570Z,72.90
2023-04-25T05:47:39.501Z,73.20
2023-04-25T05:50:19.246Z,73.00
2023-04-25T05:52:53.635Z,72.40
2023-04-25T05:55:36.656Z,71.80
2023-04-25T05:58:18.150Z,72.10
2023-04-25T06:00:45.767Z,72.70
2023-04-25T06:03:17.773Z,71.80
2023-04-25T06:05:47.873Z,72.10
2023-04-25T06:08:15.383Z,72.50
2023-04-25T06:10:42.877Z,72.60
2023-04-25T06:13:10.408Z,72.70
2023-04-25T06:15:38.295Z,72.60
2023-04-25T06:18:05.891Z,72.80
2023-04-25T06:20:35.236Z,72.80
2023-04-25T06:23:03.184Z,72.80
2023-04-25T06:25:49.922Z,72.80
2023-04-25T06:28:17.487Z,72.70
2023-04-25T06:30:46.148Z,72.70
2023-04-25T06:33:18.136Z,73.00
2023-04-25T06:35:46.692Z,73.10
2023-04-25T06:38:16.780Z,73.10
2023-04-25T06:40:48.454Z,72.60
2023-04-25T06:43:16.238Z,72.20
2023-04-25T06:46:02.611Z,72.10
2023-04-25T06:48:32.902Z,71.80
2023-04-25T06:51:00.446Z,71.80
2023-04-25T06:53:28.102Z,71.60
2023-04-25T06:56:00.068Z,71.60
2023-04-25T06:58:35.762Z,71.50
2023-04-25T07:01:26.189Z,71.60
2023-04-25T07:03:53.970Z,71.20
2023-04-25T07:06:21.927Z,71.10
2023-04-25T07:08:49.622Z,71.10
2023-04-25T07:11:17.354Z,70.70
2023-04-25T07:13:44.754Z,70.50
2023-04-25T07:16:12.168Z,70.30
2023-04-25T07:18:39.723Z,70.70
2023-04-25T07:21:07.188Z,70.90
2023-04-25T07:23:35.831Z,70.80
2023-04-25T07:26:09.858Z,70.30
2023-04-25T07:28:41.838Z,71.90
2023-04-25T07:31:09.288Z,70.80
2023-04-25T07:33:37.015Z,70.20
2023-04-25T07:36:05.077Z,68.80
2023-04-25T07:38:32.758Z,68.90
2023-04-25T07:41:00.216Z,68.30
2023-04-25T07:43:27.827Z,69.20
2023-04-25T07:45:59.376Z,67.20
2023-04-25T07:48:29.530Z,66.20
2023-04-25T07:50:57.606Z,65.60
2023-04-25T07:53:25.122Z,65.30
2023-04-25T07:55:57.162Z,65.20
2023-04-25T07:58:24.798Z,64.70
2023-04-25T08:00:56.610Z,64.20
2023-04-25T08:03:36.443Z,63.80
2023-04-25T08:06:10.576Z,63.70
2023-04-25T08:08:48.958Z,63.60
2023-04-25T08:11:19.602Z,64.00
2023-04-25T08:13:47.018Z,64.20
2023-04-25T08:16:15.070Z,64.30
2023-04-25T08:18:43.081Z,64.90
2023-04-25T08:21:12.422Z,65.10
2023-04-25T08:23:40.479Z,65.40
2023-04-25T08:26:14.607Z,65.80
2023-04-25T08:28:43.792Z,66.10
2023-04-25T08:31:11.653Z,64.90
2023-04-25T08:33:52.793Z,64.30
2023-04-25T08:39:00.322Z,64.90
2023-04-25T08:41:28.898Z,64.30
2023-04-25T08:44:01.070Z,65.10
2023-04-25T08:46:29.325Z,66.10
2023-04-25T08:49:12.421Z,66.20
2023-04-25T08:51:47.937Z,66.40
2023-04-25T08:54:30.778Z,66.80
2023-04-25T08:57:03.397Z,65.50
2023-04-25T08:59:32.329Z,65.50
2023-04-25T09:02:00.352Z,63.50
2023-04-25T09:04:27.945Z,62.80
2023-04-25T09:06:56.101Z,62.00
2023-04-25T09:09:25.360Z,60.70
2023-04-25T09:11:55.766Z,60.70
2023-04-25T09:14:26.826Z,61.20
2023-04-25T09:17:05.745Z,60.80
2023-04-25T09:19:53.752Z,60.90
2023-04-25T09:22:26.524Z,61.00
2023-04-25T09:24:54.145Z,60.50
2023-04-25T09:27:26.155Z,61.10
2023-04-25T09:30:01.844Z,63.20
2023-04-25T09:32:39.000Z,64.20
2023-04-25T09:35:07.134Z,64.90
2023-04-25T09:37:35.834Z,64.50
2023-04-25T09:40:32.546Z,63.70
2023-04-25T09:43:24.840Z,62.30
2023-04-25T09:45:59.055Z,58.50
2023-04-25T09:48:29.192Z,58.30
2023-04-25T09:51:14.611Z,56.10
2023-04-25T09:53:52.745Z,54.00
2023-04-25T09:56:38.496Z,53.60
2023-04-25T09:59:09.818Z,52.70
2023-04-25T10:01:42.376Z,52.10
2023-04-25T10:04:21.632Z,51.40
2023-04-25T10:07:07.198Z,52.00
2023-04-25T10:09:38.283Z,52.20
2023-04-25T10:12:07.086Z,53.50
2023-04-25T10:14:35.213Z,53.80
2023-04-25T10:17:02.789Z,53.10
2023-04-25T10:19:30.871Z,53.50
2023-04-25T10:22:15.916Z,53.50
2023-04-25T10:24:44.706Z,52.90
2023-04-25T10:27:12.220Z,53.10
2023-04-25T10:29:39.729Z,52.80
2023-04-25T10:32:07.194Z,53.20
2023-04-25T10:34:41.953Z,55.10
2023-04-25T10:37:11.638Z,54.20
2023-04-25T10:39:41.435Z,53.80
2023-04-25T10:42:09.416Z,53.40
2023-04-25T10:44:41.018Z,53.30
2023-04-25T10:47:10.627Z,52.90
2023-04-25T10:49:43.116Z,53.50
2023-04-25T10:52:16.291Z,53.80
2023-04-25T10:54:48.312Z,52.10
2023-04-25T10:57:41.774Z,52.10
2023-04-25T11:00:12.783Z,52.70
2023-04-25T11:02:49.112Z,53.40
2023-04-25T11:05:22.721Z,52.00
2023-04-25T11:08:07.241Z,52.20
2023-04-25T11:10:38.476Z,53.20
2023-04-25T11:13:06.031Z,53.60
2023-04-25T11:15:33.727Z,53.40
2023-04-25T11:18:02.099Z,53.70
2023-04-25T11:20:29.827Z,52.70
2023-04-25T11:23:00.995Z,51.90
2023-04-25T11:25:29.175Z,52.10
2023-04-25T11:27:59.290Z,51.20
2023-04-25T11:30:27.861Z,49.90
2023-04-25T11:32:55.906Z,50.00
2023-04-25T11:35:24.446Z,49.30
2023-04-25T11:37:53.096Z,49.40
2023-04-25T11:40:20.693Z,49.30
2023-04-25T11:42:48.795Z,47.90
2023-04-25T11:45:16.497Z,47.80
2023-04-25T11:47:44.080Z,48.00
2023-04-25T11:50:11.780Z,47.30
2023-04-25T11:52:40.643Z,47.60
2023-04-25T11:55:11.374Z,47.30
2023-04-25T11:57:41.070Z,47.80
2023-04-25T12:00:18.543Z,47.00
2023-04-25T12:02:48.979Z,46.30
2023-04-25T12:05:31.158Z,46.60
2023-04-25T12:08:16.251Z,46.80
2023-04-25T12:10:46.636Z,48.20
2023-04-25T12:13:27.073Z,47.90
2023-04-25T12:15:57.889Z,47.70
2023-04-25T12:18:29.137Z,48.60
2023-04-25T12:20:57.184Z,48.50
2023-04-25T12:23:31.650Z,48.70
2023-04-25T12:25:59.365Z,48.70
2023-04-25T12:28:29.889Z,47.70
2023-04-25T12:31:00.045Z,47.90
2023-04-25T12:33:30.394Z,47.50
2023-04-25T12:35:59.090Z,46.60
2023-04-25T12:38:28.739Z,47.90
2023-04-25T12:40:56.645Z,48.60
2023-04-25T12:43:24.314Z,47.80
2023-04-25T12:45:53.408Z,47.00
2023-04-25T12:48:21.791Z,47.20
2023-04-25T12:50:50.662Z,48.00
2023-04-25T12:53:19.084Z,48.30
2023-04-25T12:55:49.947Z,48.60
2023-04-25T12:58:19.354Z,48.80
2023-04-25T13:00:47.447Z,48.70
2023-04-25T13:03:15.292Z,48.90
2023-04-25T13:05:43.429Z,48.40
2023-04-25T13:08:11.125Z,48.60
2023-04-25T13:10:40.017Z,49.20
2023-04-25T13:13:07.673Z,49.00
2023-04-25T13:15:36.110Z,49.30
2023-04-25T13:18:06.509Z,49.00
2023-04-25T13:20:34.518Z,48.20
2023-04-25T13:23:02.933Z,48.30
2023-04-25T13:25:30.817Z,47.20
2023-04-25T13:27:58.308Z,47.40
2023-04-25T13:30:26.320Z,47.80
2023-04-25T13:32:57.114Z,47.40
2023-04-25T13:35:24.655Z,47.20
2023-04-25T13:37:52.255Z,47.70
2023-04-25T13:40:19.620Z,47.50
2023-04-25T13:42:47.155Z,47.80
2023-04-25T13:45:14.957Z,48.00
2023-04-25T13:47:42.558Z,48.40
2023-04-25T13:50:10.993Z,48.50
2023-04-25T13:52:38.533Z,48.30
2023-04-25T13:55:07.788Z,48.40
2023-04-25T13:57:36.019Z,48.60
2023-04-25T14:00:09.600Z,48.10
2023-04-25T14:02:37.546Z,46.10
2023-04-25T14:05:06.185Z,46.20
2023-04-25T14:07:36.032Z,46.90
2023-04-25T14:10:05.644Z,47.40
2023-04-25T14:12:33.890Z,47.50
2023-04-25T14:15:01.521Z,47.80
2023-04-25T14:17:28.943Z,47.90
2023-04-25T14:19:56.456Z,47.90
2023-04-25T14:22:23.897Z,47.70
2023-04-25T14:24:51.262Z,47.50
2023-04-25T14:27:18.638Z,47.40
2023-04-25T14:29:45.892Z,46.40
2023-04-25T14:32:13.088Z,46.20
2023-04-25T14:34:41.314Z,46.00
2023-04-25T14:37:08.689Z,46.40
2023-04-25T14:39:36.407Z,46.10
2023-04-25T14:42:04.395Z,46.10
2023-04-25T14:44:31.925Z,46.30
2023-04-25T14:46:59.458Z,46.90
2023-04-25T14:49:26.944Z,47.40
2023-04-25T14:51:54.425Z,47.20
2023-04-25T14:54:21.835Z,47.50
2023-04-25T14:56:49.219Z,47.70
2023-04-25T14:59:16.919Z,48.00
2023-04-25T15:01:45.019Z,48.20
2023-04-25T15:04:13.635Z,48.70
2023-04-25T15:06:41.254Z,48.90
2023-04-25T15:09:09.490Z,49.30
2023-04-25T15:11:37.402Z,49.10
2023-04-25T15:14:05.427Z,49.20
2023-04-25T15:16:32.992Z,49.20
2023-04-25T15:19:00.616Z,49.80
2023-04-25T15:21:28.215Z,50.20
2023-04-25T15:23:56.024Z,49.90
2023-04-25T15:26:23.636Z,49.00
2023-04-25T15:28:51.052Z,49.00
2023-04-25T15:31:18.454Z,48.60
2023-04-25T15:33:46.256Z,48.20
2023-04-25T15:36:13.758Z,47.70
2023-04-25T15:38:41.347Z,47.70
2023-04-25T15:41:08.834Z,48.00
2023-04-25T15:43:40.311Z,48.30
2023-04-25T15:46:07.793Z,48.40
2023-04-25T15:48:36.270Z,48.60
2023-04-25T15:51:03.709Z,48.50
2023-04-25T15:53:31.591Z,48.50
2023-04-25T15:55:58.980Z,48.60
2023-04-25T15:58:27.362Z,47.90
2023-04-25T16:00:55.641Z,48.20
2023-04-25T16:03:23.862Z,47.80
2023-04-25T16:05:51.592Z,47.60
2023-04-25T16:08:19.077Z,47.90
2023-04-25T16:10:46.453Z,48.00
2023-04-25T16:13:14.010Z,48.30
2023-04-25T16:15:41.525Z,48.70
2023-04-25T16:18:09.412Z,49.60
2023-04-25T16:20:36.748Z,49.00
2023-04-25T16:23:04.080Z,49.00
2023-04-25T16:25:31.510Z,49.20
2023-04-25T16:27:59.426Z,49.20
2023-04-25T16:30:26.981Z,49.30
2023-04-25T16:32:57.004Z,49.40
2023-04-25T16:35:25.501Z,49.00
2023-04-25T16:37:53.059Z,49.10
2023-04-25T16:40:20.917Z,49.00
2023-04-25T16:42:48.262Z,49.40
2023-04-25T16:45:17.782Z,48.80
2023-04-25T16:47:46.424Z,48.50
2023-04-25T16:50:15.195Z,48.80
2023-04-25T16:52:44.424Z,48.60
2023-04-25T16:55:11.972Z,48.70
2023-04-25T16:57:39.469Z,49.60
2023-04-25T17:00:09.640Z,48.70
2023-04-25T17:02:37.412Z,48.70
2023-04-25T17:05:05.240Z,48.90
2023-04-25T17:07:32.925Z,48.70
2023-04-25T17:10:00.507Z,48.60
2023-04-25T17:12:28.153Z,48.50
2023-04-25T17:14:55.438Z,48.60
2023-04-25T17:17:22.793Z,48.30
2023-04-25T17:19:50.195Z,48.20
2023-04-25T17:22:17.573Z,48.20
2023-04-25T17:24:44.810Z,47.80
2023-04-25T17:27:12.045Z,48.10
2023-04-25T17:29:39.467Z,48.00
2023-04-25T17:32:07.281Z,47.80
2023-04-25T17:34:37.580Z,47.80
2023-04-25T17:37:04.999Z,47.70
2023-04-25T17:39:32.456Z,47.70
2023-04-25T17:42:01.057Z,48.00
2023-04-25T17:44:28.528Z,48.00
2023-04-25T17:46:55.909Z,47.90
2023-04-25T17:49:23.357Z,48.00
2023-04-25T17:51:50.826Z,48.30
2023-04-25T17:54:18.709Z,48.30
2023-04-25T17:56:46.049Z,48.00
2023-04-25T17:59:13.650Z,47.80
2023-04-25T18:01:43.714Z,48.20
2023-04-25T18:04:13.497Z,48.20
2023-04-25T18:06:41.505Z,48.00
2023-04-25T18:09:15.965Z,48.10
2023-04-25T18:11:47.119Z,48.00
2023-04-25T18:14:16.000Z,48.00
2023-04-25T18:16:44.502Z,48.30
2023-04-25T18:19:15.286Z,48.60
2023-04-25T18:21:43.357Z,47.70
2023-04-25T18:24:12.431Z,47.80
2023-04-25T18:26:40.602Z,47.80
2023-04-25T18:29:10.575Z,47.60
2023-04-25T18:31:40.317Z,47.90
2023-04-25T18:34:08.762Z,47.60
2023-04-25T18:36:37.147Z,48.00
2023-04-25T18:39:19.460Z,48.30
2023-04-25T18:41:58.146Z,48.20
2023-04-25T18:44:28.170Z,48.20
2023-04-25T18:46:55.758Z,48.00
2023-04-25T18:49:23.237Z,47.70
2023-04-25T18:51:51.147Z,47.90
2023-04-25T18:54:18.616Z,48.00
2023-04-25T18:56:46.831Z,48.00
2023-04-25T18:59:15.499Z,48.30
2023-04-25T19:01:43.509Z,48.30
2023-04-25T19:04:11.521Z,48.20
2023-04-25T19:06:39.084Z,48.00
2023-04-25T19:09:07.689Z,48.30
2023-04-25T19:11:35.111Z,47.80
2023-04-25T19:14:02.703Z,48.20
2023-04-25T19:16:30.172Z,48.20
2023-04-25T19:18:57.754Z,48.10
2023-04-25T19:21:25.510Z,48.10
2023-04-25T19:23:54.399Z,48.10
2023-04-25T19:26:22.538Z,48.10
2023-04-25T19:29:07.300Z,48.10
2023-04-25T19:31:36.648Z,48.10
2023-04-25T19:34:05.860Z,48.30
2023-04-25T19:36:34.319Z,48.20
2023-04-25T19:39:04.689Z,48.30
2023-04-25T19:41:33.700Z,48.60
2023-04-25T19:44:03.285Z,48.60
2023-04-25T19:46:34.215Z,48.70
2023-04-25T19:49:03.154Z,49.10
2023-04-25T19:51:31.991Z,49.30
2023-04-25T19:53:59.707Z,49.40
2023-04-25T19:56:27.228Z,49.20
2023-04-25T19:58:54.832Z,49.00
2023-04-25T20:01:22.755Z,48.70
2023-04-25T20:03:51.749Z,48.70
2023-04-25T20:06:19.619Z,48.70
2023-04-25T20:08:47.287Z,48.60
2023-04-25T20:11:15.047Z,48.80
2023-04-25T20:13:42.328Z,49.00
2023-04-25T20:16:10.779Z,48.70
2023-04-25T20:18:39.030Z,48.70
2023-04-25T20:21:07.559Z,48.80
2023-04-25T20:23:34.937Z,48.60
2023-04-25T20:26:04.578Z,49.30
2023-04-25T20:28:32.961Z,48.70
2023-04-25T20:31:00.748Z,48.70
2023-04-25T20:33:28.481Z,48.50
2023-04-25T20:35:56.004Z,48.60
2023-04-25T20:38:23.359Z,48.50
2023-04-25T20:40:50.923Z,48.70
2023-04-25T20:43:19.800Z,49.00
2023-04-25T20:45:47.255Z,49.30
2023-04-25T20:48:15.131Z,49.30
2023-04-25T20:50:43.259Z,49.20
2023-04-25T20:53:10.573Z,49.40
2023-04-25T20:55:37.970Z,49.30
2023-04-25T20:58:06.832Z,49.40
2023-04-25T21:00:34.758Z,49.40
2023-04-25T21:03:05.341Z,49.60
2023-04-25T21:05:33.014Z,49.40
2023-04-25T21:08:00.551Z,49.20
2023-04-25T21:10:27.951Z,49.00
2023-04-25T21:12:56.559Z,49.20
2023-04-25T21:15:24.867Z,49.40
2023-04-25T21:17:52.354Z,49.60
2023-04-25T21:20:21.889Z,49.50
2023-04-25T21:22:53.752Z,49.70
2023-04-25T21:25:31.276Z,49.60
2023-04-25T21:28:00.242Z,49.80
2023-04-25T21:30:27.756Z,49.80
2023-04-25T21:32:56.211Z,49.90
2023-04-25T21:35:23.576Z,49.80
2023-04-25T21:37:51.153Z,49.90
2023-04-25T21:40:18.850Z,50.10
2023-04-25T21:42:51.343Z,50.40
2023-04-25T21:45:19.935Z,50.70
2023-04-25T21:47:48.457Z,50.70
2023-04-25T21:50:16.858Z,50.90
2023-04-25T21:52:44.322Z,51.00
2023-04-25T21:55:11.897Z,51.10
2023-04-25T21:57:39.263Z,51.00
2023-04-25T22:00:28.490Z,51.10
2023-04-25T22:02:56.582Z,51.20
2023-04-25T22:05:26.376Z,51.30
2023-04-25T22:07:56.914Z,51.50
2023-04-25T22:10:25.397Z,51.60
2023-04-25T22:12:52.831Z,51.60
2023-04-25T22:15:23.468Z,51.70
2023-04-25T22:17:52.284Z,51.60
2023-04-25T22:20:20.139Z,51.80
2023-04-25T22:22:47.362Z,52.00
2023-04-25T22:25:15.126Z,52.00
2023-04-25T22:27:43.599Z,52.00
2023-04-25T22:30:15.219Z,52.80
2023-04-25T22:32:42.882Z,52.30
2023-04-25T22:35:10.644Z,52.30
2023-04-25T22:37:38.631Z,52.40
2023-04-25T22:40:10.424Z,52.40
2023-04-25T22:42:42.215Z,52.40
2023-04-25T22:45:11.013Z,52.60
2023-04-25T22:47:39.324Z,52.60
2023-04-25T22:50:12.157Z,53.20
2023-04-25T22:52:39.686Z,53.80
2023-04-25T22:55:07.303Z,54.20
2023-04-25T22:57:37.432Z,54.50
2023-04-25T23:00:10.613Z,54.90
2023-04-25T23:02:38.023Z,55.00
2023-04-25T23:05:06.940Z,55.30
2023-04-25T23:07:34.775Z,55.50
2023-04-25T23:10:02.090Z,55.90
2023-04-25T23:12:29.333Z,56.10
2023-04-25T23:14:57.226Z,56.00
2023-04-25T23:17:24.518Z,55.80
2023-04-25T23:19:52.105Z,55.70
2023-04-25T23:22:19.423Z,55.60
2023-04-25T23:24:46.644Z,55.50
2023-04-25T23:27:14.321Z,55.40
2023-04-25T23:29:41.638Z,55.70
2023-04-25T23:32:09.006Z,55.80
2023-04-25T23:34:36.645Z,55.80
2023-04-25T23:37:04.454Z,55.80
2023-04-25T23:39:32.207Z,55.80
2023-04-25T23:42:00.356Z,55.90
2023-04-25T23:44:27.614Z,56.00
2023-04-25T23:46:54.873Z,56.10
2023-04-25T23:49:22.549Z,56.20
2023-04-25T23:51:49.875Z,56.60
2023-04-25T23:54:17.354Z,57.40
2023-04-25T23:56:44.660Z,57.10
2023-04-25T23:59:11.894Z,57.50
